sensor_id;sensor_type;location;lat;lon;timestamp;P1;durP1;ratioP1;P2;durP2;ratioP2
49972;SDS011;65693;49.798;10.968;2023-05-07T00:00:59;2.75;;;1.90;;
49972;SDS011;65693;49.798;10.968;2023-05-07T00:03:26;2.45;;;1.73;;
49972;SDS011;65693;49.798;10.968;2023-05-07T00:05:52;2.67;;;1.80;;
49972;SDS011;65693;49.798;10.968;2023-05-07T00:08:20;3.20;;;2.00;;
49972;SDS011;65693;49.798;10.968;2023-05-07T00:10:47;2.35;;;1.75;;
49972;SDS011;65693;49.798;10.968;2023-05-07T00:13:13;3.25;;;1.90;;
49972;SDS011;65693;49.798;10.968;2023-05-07T00:15:39;2.20;;;1.60;;
49972;SDS011;65693;49.798;10.968;2023-05-07T00:18:06;3.25;;;1.98;;
49972;SDS011;65693;49.798;10.968;2023-05-07T00:20:32;3.53;;;2.13;;
49972;SDS011;65693;49.798;10.968;2023-05-07T00:22:59;2.50;;;1.55;;
49972;SDS011;65693;49.798;10.968;2023-05-07T00:25:26;3.00;;;2.03;;
49972;SDS011;65693;49.798;10.968;2023-05-07T00:27:53;3.28;;;1.92;;
49972;SDS011;65693;49.798;10.968;2023-05-07T00:30:19;2.45;;;1.92;;
49972;SDS011;65693;49.798;10.968;2023-05-07T00:32:46;3.15;;;2.15;;
49972;SDS011;65693;49.798;10.968;2023-05-07T00:35:14;2.50;;;1.70;;
49972;SDS011;65693;49.798;10.968;2023-05-07T00:37:40;2.88;;;1.88;;
49972;SDS011;65693;49.798;10.968;2023-05-07T00:40:07;3.47;;;2.10;;
49972;SDS011;65693;49.798;10.968;2023-05-07T00:42:35;2.92;;;2.13;;
49972;SDS011;65693;49.798;10.968;2023-05-07T00:45:02;3.72;;;2.00;;
49972;SDS011;65693;49.798;10.968;2023-05-07T00:47:30;2.20;;;1.67;;
49972;SDS011;65693;49.798;10.968;2023-05-07T00:49:57;3.05;;;2.03;;
49972;SDS011;65693;49.798;10.968;2023-05-07T00:52:25;2.45;;;1.77;;
49972;SDS011;65693;49.798;10.968;2023-05-07T00:54:52;2.55;;;1.90;;
49972;SDS011;65693;49.798;10.968;2023-05-07T00:57:20;2.95;;;1.83;;
49972;SDS011;65693;49.798;10.968;2023-05-07T00:59:48;3.38;;;2.08;;
49972;SDS011;65693;49.798;10.968;2023-05-07T01:02:16;2.75;;;1.77;;
49972;SDS011;65693;49.798;10.968;2023-05-07T01:04:43;2.53;;;1.90;;
49972;SDS011;65693;49.798;10.968;2023-05-07T01:07:09;2.80;;;2.13;;
49972;SDS011;65693;49.798;10.968;2023-05-07T01:09:35;2.50;;;1.75;;
49972;SDS011;65693;49.798;10.968;2023-05-07T01:12:03;3.40;;;2.22;;
49972;SDS011;65693;49.798;10.968;2023-05-07T01:14:30;3.20;;;2.00;;
49972;SDS011;65693;49.798;10.968;2023-05-07T01:16:59;3.58;;;2.10;;
49972;SDS011;65693;49.798;10.968;2023-05-07T01:19:25;3.00;;;2.10;;
49972;SDS011;65693;49.798;10.968;2023-05-07T01:21:52;3.55;;;2.03;;
49972;SDS011;65693;49.798;10.968;2023-05-07T01:24:30;3.17;;;2.10;;
49972;SDS011;65693;49.798;10.968;2023-05-07T01:26:57;3.60;;;2.03;;
49972;SDS011;65693;49.798;10.968;2023-05-07T01:29:23;2.88;;;2.15;;
49972;SDS011;65693;49.798;10.968;2023-05-07T01:31:50;2.85;;;2.05;;
49972;SDS011;65693;49.798;10.968;2023-05-07T01:34:18;3.05;;;2.10;;
49972;SDS011;65693;49.798;10.968;2023-05-07T01:36:47;2.95;;;2.08;;
49972;SDS011;65693;49.798;10.968;2023-05-07T01:39:14;3.55;;;2.33;;
49972;SDS011;65693;49.798;10.968;2023-05-07T01:41:43;3.45;;;2.00;;
49972;SDS011;65693;49.798;10.968;2023-05-07T01:44:10;4.03;;;2.08;;
49972;SDS011;65693;49.798;10.968;2023-05-07T01:46:39;3.40;;;2.20;;
49972;SDS011;65693;49.798;10.968;2023-05-07T01:49:06;2.92;;;2.15;;
49972;SDS011;65693;49.798;10.968;2023-05-07T01:51:33;3.08;;;2.00;;
49972;SDS011;65693;49.798;10.968;2023-05-07T01:54:00;3.50;;;2.20;;
49972;SDS011;65693;49.798;10.968;2023-05-07T01:56:26;3.20;;;2.17;;
49972;SDS011;65693;49.798;10.968;2023-05-07T01:58:54;3.58;;;2.40;;
49972;SDS011;65693;49.798;10.968;2023-05-07T02:01:21;2.90;;;2.22;;
49972;SDS011;65693;49.798;10.968;2023-05-07T02:03:47;2.97;;;2.00;;
49972;SDS011;65693;49.798;10.968;2023-05-07T02:06:13;2.80;;;2.20;;
49972;SDS011;65693;49.798;10.968;2023-05-07T02:08:40;3.70;;;2.42;;
49972;SDS011;65693;49.798;10.968;2023-05-07T02:11:06;3.40;;;2.50;;
49972;SDS011;65693;49.798;10.968;2023-05-07T02:13:33;3.15;;;2.20;;
49972;SDS011;65693;49.798;10.968;2023-05-07T02:16:02;3.53;;;2.28;;
49972;SDS011;65693;49.798;10.968;2023-05-07T02:18:29;2.97;;;2.30;;
49972;SDS011;65693;49.798;10.968;2023-05-07T02:20:56;3.25;;;2.35;;
49972;SDS011;65693;49.798;10.968;2023-05-07T02:23:23;3.70;;;2.25;;
49972;SDS011;65693;49.798;10.968;2023-05-07T02:25:49;3.75;;;2.55;;
49972;SDS011;65693;49.798;10.968;2023-05-07T02:28:16;3.58;;;2.60;;
49972;SDS011;65693;49.798;10.968;2023-05-07T02:30:42;3.33;;;2.38;;
49972;SDS011;65693;49.798;10.968;2023-05-07T02:33:10;3.53;;;2.45;;
49972;SDS011;65693;49.798;10.968;2023-05-07T02:35:37;3.67;;;2.60;;
49972;SDS011;65693;49.798;10.968;2023-05-07T02:38:03;3.08;;;2.13;;
49972;SDS011;65693;49.798;10.968;2023-05-07T02:40:30;3.55;;;2.45;;
49972;SDS011;65693;49.798;10.968;2023-05-07T02:42:58;3.78;;;2.60;;
49972;SDS011;65693;49.798;10.968;2023-05-07T02:45:25;3.17;;;2.33;;
49972;SDS011;65693;49.798;10.968;2023-05-07T02:47:51;3.13;;;2.30;;
49972;SDS011;65693;49.798;10.968;2023-05-07T02:50:19;3.95;;;2.78;;
49972;SDS011;65693;49.798;10.968;2023-05-07T02:52:45;3.17;;;2.28;;
49972;SDS011;65693;49.798;10.968;2023-05-07T02:55:12;3.65;;;2.60;;
49972;SDS011;65693;49.798;10.968;2023-05-07T02:57:39;4.10;;;2.58;;
49972;SDS011;65693;49.798;10.968;2023-05-07T03:00:12;4.00;;;2.92;;
49972;SDS011;65693;49.798;10.968;2023-05-07T03:02:40;3.28;;;2.20;;
49972;SDS011;65693;49.798;10.968;2023-05-07T03:05:07;3.88;;;2.47;;
49972;SDS011;65693;49.798;10.968;2023-05-07T03:07:35;3.78;;;2.63;;
49972;SDS011;65693;49.798;10.968;2023-05-07T03:10:02;4.20;;;2.63;;
49972;SDS011;65693;49.798;10.968;2023-05-07T03:12:29;3.70;;;2.40;;
49972;SDS011;65693;49.798;10.968;2023-05-07T03:14:56;3.58;;;2.50;;
49972;SDS011;65693;49.798;10.968;2023-05-07T03:17:22;3.13;;;2.20;;
49972;SDS011;65693;49.798;10.968;2023-05-07T03:19:49;4.00;;;2.80;;
49972;SDS011;65693;49.798;10.968;2023-05-07T03:22:15;3.83;;;2.55;;
49972;SDS011;65693;49.798;10.968;2023-05-07T03:24:43;3.78;;;2.58;;
49972;SDS011;65693;49.798;10.968;2023-05-07T03:27:09;4.20;;;3.08;;
49972;SDS011;65693;49.798;10.968;2023-05-07T03:29:36;3.45;;;2.60;;
49972;SDS011;65693;49.798;10.968;2023-05-07T03:32:02;3.72;;;2.60;;
49972;SDS011;65693;49.798;10.968;2023-05-07T03:34:29;3.88;;;2.78;;
49972;SDS011;65693;49.798;10.968;2023-05-07T03:36:56;3.83;;;2.70;;
49972;SDS011;65693;49.798;10.968;2023-05-07T03:39:22;3.97;;;2.78;;
49972;SDS011;65693;49.798;10.968;2023-05-07T03:41:50;3.67;;;2.72;;
49972;SDS011;65693;49.798;10.968;2023-05-07T03:44:16;4.65;;;3.10;;
49972;SDS011;65693;49.798;10.968;2023-05-07T03:46:43;3.63;;;2.80;;
49972;SDS011;65693;49.798;10.968;2023-05-07T03:49:09;3.60;;;2.65;;
49972;SDS011;65693;49.798;10.968;2023-05-07T03:51:35;4.60;;;2.95;;
49972;SDS011;65693;49.798;10.968;2023-05-07T03:54:02;4.05;;;2.85;;
49972;SDS011;65693;49.798;10.968;2023-05-07T03:56:28;3.80;;;2.63;;
49972;SDS011;65693;49.798;10.968;2023-05-07T03:58:57;3.55;;;2.60;;
49972;SDS011;65693;49.798;10.968;2023-05-07T04:01:23;3.67;;;2.80;;
49972;SDS011;65693;49.798;10.968;2023-05-07T04:03:50;4.05;;;3.03;;
49972;SDS011;65693;49.798;10.968;2023-05-07T04:06:16;4.28;;;3.05;;
49972;SDS011;65693;49.798;10.968;2023-05-07T04:08:43;4.45;;;3.22;;
49972;SDS011;65693;49.798;10.968;2023-05-07T04:11:09;3.58;;;2.58;;
49972;SDS011;65693;49.798;10.968;2023-05-07T04:13:36;4.03;;;2.90;;
49972;SDS011;65693;49.798;10.968;2023-05-07T04:16:04;3.80;;;3.03;;
49972;SDS011;65693;49.798;10.968;2023-05-07T04:18:31;4.03;;;3.25;;
49972;SDS011;65693;49.798;10.968;2023-05-07T04:20:58;3.60;;;2.80;;
49972;SDS011;65693;49.798;10.968;2023-05-07T04:23:24;3.47;;;2.60;;
49972;SDS011;65693;49.798;10.968;2023-05-07T04:25:51;4.30;;;3.15;;
49972;SDS011;65693;49.798;10.968;2023-05-07T04:28:17;4.05;;;3.20;;
49972;SDS011;65693;49.798;10.968;2023-05-07T04:30:44;4.18;;;2.83;;
49972;SDS011;65693;49.798;10.968;2023-05-07T04:33:11;3.58;;;2.70;;
49972;SDS011;65693;49.798;10.968;2023-05-07T04:35:41;4.80;;;3.42;;
49972;SDS011;65693;49.798;10.968;2023-05-07T04:38:07;4.38;;;3.22;;
49972;SDS011;65693;49.798;10.968;2023-05-07T04:40:35;5.00;;;3.38;;
49972;SDS011;65693;49.798;10.968;2023-05-07T04:43:01;4.50;;;3.15;;
49972;SDS011;65693;49.798;10.968;2023-05-07T04:45:28;4.10;;;3.28;;
49972;SDS011;65693;49.798;10.968;2023-05-07T04:47:54;3.97;;;3.28;;
49972;SDS011;65693;49.798;10.968;2023-05-07T04:50:22;4.40;;;3.30;;
49972;SDS011;65693;49.798;10.968;2023-05-07T04:52:49;4.45;;;3.03;;
49972;SDS011;65693;49.798;10.968;2023-05-07T04:55:15;4.07;;;3.28;;
49972;SDS011;65693;49.798;10.968;2023-05-07T04:57:42;5.28;;;3.33;;
49972;SDS011;65693;49.798;10.968;2023-05-07T05:00:09;4.75;;;3.47;;
49972;SDS011;65693;49.798;10.968;2023-05-07T05:02:36;4.30;;;3.08;;
49972;SDS011;65693;49.798;10.968;2023-05-07T05:05:03;4.28;;;3.20;;
49972;SDS011;65693;49.798;10.968;2023-05-07T05:07:31;4.30;;;3.53;;
49972;SDS011;65693;49.798;10.968;2023-05-07T05:09:57;4.22;;;3.15;;
49972;SDS011;65693;49.798;10.968;2023-05-07T05:12:24;4.25;;;3.22;;
49972;SDS011;65693;49.798;10.968;2023-05-07T05:14:50;4.00;;;2.92;;
49972;SDS011;65693;49.798;10.968;2023-05-07T05:17:17;5.00;;;3.45;;
49972;SDS011;65693;49.798;10.968;2023-05-07T05:19:43;5.10;;;3.30;;
49972;SDS011;65693;49.798;10.968;2023-05-07T05:22:10;4.07;;;3.15;;
49972;SDS011;65693;49.798;10.968;2023-05-07T05:24:37;4.38;;;3.55;;
49972;SDS011;65693;49.798;10.968;2023-05-07T05:27:04;4.10;;;3.20;;
49972;SDS011;65693;49.798;10.968;2023-05-07T05:29:31;4.55;;;3.33;;
49972;SDS011;65693;49.798;10.968;2023-05-07T05:31:57;4.55;;;3.50;;
49972;SDS011;65693;49.798;10.968;2023-05-07T05:34:24;4.70;;;4.03;;
49972;SDS011;65693;49.798;10.968;2023-05-07T05:36:50;4.57;;;3.38;;
49972;SDS011;65693;49.798;10.968;2023-05-07T05:39:16;4.70;;;3.47;;
49972;SDS011;65693;49.798;10.968;2023-05-07T05:41:44;4.45;;;3.30;;
49972;SDS011;65693;49.798;10.968;2023-05-07T05:44:12;4.70;;;3.40;;
49972;SDS011;65693;49.798;10.968;2023-05-07T05:46:38;4.28;;;3.30;;
49972;SDS011;65693;49.798;10.968;2023-05-07T05:49:05;4.18;;;3.13;;
49972;SDS011;65693;49.798;10.968;2023-05-07T05:51:32;4.57;;;3.70;;
49972;SDS011;65693;49.798;10.968;2023-05-07T05:53:58;5.95;;;3.88;;
49972;SDS011;65693;49.798;10.968;2023-05-07T05:56:24;5.63;;;3.88;;
49972;SDS011;65693;49.798;10.968;2023-05-07T05:58:52;5.45;;;4.03;;
49972;SDS011;65693;49.798;10.968;2023-05-07T06:01:19;5.35;;;3.95;;
49972;SDS011;65693;49.798;10.968;2023-05-07T06:03:45;5.18;;;4.00;;
49972;SDS011;65693;49.798;10.968;2023-05-07T06:06:11;5.10;;;4.25;;
49972;SDS011;65693;49.798;10.968;2023-05-07T06:08:39;4.95;;;4.15;;
49972;SDS011;65693;49.798;10.968;2023-05-07T06:11:06;4.97;;;3.80;;
49972;SDS011;65693;49.798;10.968;2023-05-07T06:13:32;4.85;;;3.88;;
49972;SDS011;65693;49.798;10.968;2023-05-07T06:16:00;5.15;;;3.95;;
49972;SDS011;65693;49.798;10.968;2023-05-07T06:18:27;5.40;;;4.32;;
49972;SDS011;65693;49.798;10.968;2023-05-07T06:20:53;4.32;;;3.83;;
49972;SDS011;65693;49.798;10.968;2023-05-07T06:23:20;5.15;;;3.90;;
49972;SDS011;65693;49.798;10.968;2023-05-07T06:25:47;4.72;;;3.92;;
49972;SDS011;65693;49.798;10.968;2023-05-07T06:28:15;4.75;;;3.97;;
49972;SDS011;65693;49.798;10.968;2023-05-07T06:30:41;5.03;;;4.15;;
49972;SDS011;65693;49.798;10.968;2023-05-07T06:33:09;4.72;;;3.75;;
49972;SDS011;65693;49.798;10.968;2023-05-07T06:35:35;5.50;;;4.47;;
49972;SDS011;65693;49.798;10.968;2023-05-07T06:38:02;5.13;;;4.45;;
49972;SDS011;65693;49.798;10.968;2023-05-07T06:40:28;4.80;;;4.07;;
49972;SDS011;65693;49.798;10.968;2023-05-07T06:42:55;5.55;;;4.55;;
49972;SDS011;65693;49.798;10.968;2023-05-07T06:45:24;4.75;;;4.07;;
49972;SDS011;65693;49.798;10.968;2023-05-07T06:47:50;5.10;;;4.03;;
49972;SDS011;65693;49.798;10.968;2023-05-07T06:50:18;5.25;;;4.15;;
49972;SDS011;65693;49.798;10.968;2023-05-07T06:52:44;5.78;;;4.25;;
49972;SDS011;65693;49.798;10.968;2023-05-07T06:55:11;5.90;;;3.97;;
49972;SDS011;65693;49.798;10.968;2023-05-07T06:57:37;5.25;;;4.10;;
49972;SDS011;65693;49.798;10.968;2023-05-07T07:00:04;5.22;;;4.05;;
49972;SDS011;65693;49.798;10.968;2023-05-07T07:02:33;4.65;;;4.03;;
49972;SDS011;65693;49.798;10.968;2023-05-07T07:05:00;5.90;;;4.78;;
49972;SDS011;65693;49.798;10.968;2023-05-07T07:07:28;5.32;;;4.15;;
49972;SDS011;65693;49.798;10.968;2023-05-07T07:09:55;5.70;;;4.63;;
49972;SDS011;65693;49.798;10.968;2023-05-07T07:12:21;5.90;;;4.40;;
49972;SDS011;65693;49.798;10.968;2023-05-07T07:14:49;5.65;;;4.78;;
49972;SDS011;65693;49.798;10.968;2023-05-07T07:17:16;5.15;;;4.32;;
49972;SDS011;65693;49.798;10.968;2023-05-07T07:19:42;5.63;;;4.30;;
49972;SDS011;65693;49.798;10.968;2023-05-07T07:22:09;5.18;;;4.32;;
49972;SDS011;65693;49.798;10.968;2023-05-07T07:24:36;5.45;;;4.30;;
49972;SDS011;65693;49.798;10.968;2023-05-07T07:27:03;5.30;;;4.22;;
49972;SDS011;65693;49.798;10.968;2023-05-07T07:29:29;6.13;;;4.30;;
49972;SDS011;65693;49.798;10.968;2023-05-07T07:31:56;5.10;;;4.00;;
49972;SDS011;65693;49.798;10.968;2023-05-07T07:34:22;5.95;;;4.03;;
49972;SDS011;65693;49.798;10.968;2023-05-07T07:36:49;5.97;;;4.65;;
49972;SDS011;65693;49.798;10.968;2023-05-07T07:39:15;5.00;;;4.50;;
49972;SDS011;65693;49.798;10.968;2023-05-07T07:41:43;5.55;;;4.75;;
49972;SDS011;65693;49.798;10.968;2023-05-07T07:44:09;5.55;;;4.15;;
49972;SDS011;65693;49.798;10.968;2023-05-07T07:46:37;5.15;;;4.40;;
49972;SDS011;65693;49.798;10.968;2023-05-07T07:49:04;5.07;;;3.80;;
49972;SDS011;65693;49.798;10.968;2023-05-07T07:51:31;5.53;;;4.53;;
49972;SDS011;65693;49.798;10.968;2023-05-07T07:53:57;5.43;;;4.45;;
49972;SDS011;65693;49.798;10.968;2023-05-07T07:56:23;8.20;;;4.70;;
49972;SDS011;65693;49.798;10.968;2023-05-07T07:58:51;6.30;;;5.00;;
49972;SDS011;65693;49.798;10.968;2023-05-07T08:01:18;5.57;;;4.53;;
49972;SDS011;65693;49.798;10.968;2023-05-07T08:03:44;5.63;;;4.70;;
49972;SDS011;65693;49.798;10.968;2023-05-07T08:06:11;6.22;;;4.75;;
49972;SDS011;65693;49.798;10.968;2023-05-07T08:08:37;5.40;;;4.53;;
49972;SDS011;65693;49.798;10.968;2023-05-07T08:11:04;5.50;;;4.68;;
49972;SDS011;65693;49.798;10.968;2023-05-07T08:13:30;5.50;;;4.57;;
49972;SDS011;65693;49.798;10.968;2023-05-07T08:15:58;5.45;;;4.53;;
49972;SDS011;65693;49.798;10.968;2023-05-07T08:18:24;5.80;;;4.45;;
49972;SDS011;65693;49.798;10.968;2023-05-07T08:20:53;7.30;;;6.00;;
49972;SDS011;65693;49.798;10.968;2023-05-07T08:23:19;6.40;;;5.55;;
49972;SDS011;65693;49.798;10.968;2023-05-07T08:25:46;7.05;;;6.05;;
49972;SDS011;65693;49.798;10.968;2023-05-07T08:28:12;6.65;;;5.38;;
49972;SDS011;65693;49.798;10.968;2023-05-07T08:30:39;7.90;;;6.40;;
49972;SDS011;65693;49.798;10.968;2023-05-07T08:33:08;6.78;;;6.00;;
49972;SDS011;65693;49.798;10.968;2023-05-07T08:35:34;8.10;;;6.18;;
49972;SDS011;65693;49.798;10.968;2023-05-07T08:38:01;8.32;;;6.80;;
49972;SDS011;65693;49.798;10.968;2023-05-07T08:40:27;8.45;;;5.95;;
49972;SDS011;65693;49.798;10.968;2023-05-07T08:42:55;7.15;;;5.85;;
49972;SDS011;65693;49.798;10.968;2023-05-07T08:45:23;8.82;;;5.88;;
49972;SDS011;65693;49.798;10.968;2023-05-07T08:47:51;6.75;;;5.80;;
49972;SDS011;65693;49.798;10.968;2023-05-07T08:50:22;8.73;;;6.03;;
49972;SDS011;65693;49.798;10.968;2023-05-07T08:52:49;8.02;;;6.25;;
49972;SDS011;65693;49.798;10.968;2023-05-07T08:55:15;7.65;;;5.85;;
49972;SDS011;65693;49.798;10.968;2023-05-07T08:57:43;7.43;;;5.82;;
49972;SDS011;65693;49.798;10.968;2023-05-07T09:00:10;7.70;;;5.40;;
49972;SDS011;65693;49.798;10.968;2023-05-07T09:02:37;9.63;;;6.57;;
49972;SDS011;65693;49.798;10.968;2023-05-07T09:05:04;7.43;;;6.07;;
49972;SDS011;65693;49.798;10.968;2023-05-07T09:07:32;6.93;;;6.13;;
49972;SDS011;65693;49.798;10.968;2023-05-07T09:10:00;7.65;;;6.45;;
49972;SDS011;65693;49.798;10.968;2023-05-07T09:12:28;10.38;;;6.50;;
49972;SDS011;65693;49.798;10.968;2023-05-07T09:14:55;8.40;;;6.22;;
49972;SDS011;65693;49.798;10.968;2023-05-07T09:17:21;7.70;;;6.90;;
49972;SDS011;65693;49.798;10.968;2023-05-07T09:19:47;8.38;;;6.85;;
49972;SDS011;65693;49.798;10.968;2023-05-07T09:22:14;8.60;;;6.30;;
49972;SDS011;65693;49.798;10.968;2023-05-07T09:24:42;7.40;;;5.78;;
49972;SDS011;65693;49.798;10.968;2023-05-07T09:27:13;8.45;;;6.45;;
49972;SDS011;65693;49.798;10.968;2023-05-07T09:29:40;8.27;;;6.00;;
49972;SDS011;65693;49.798;10.968;2023-05-07T09:32:07;7.68;;;6.03;;
49972;SDS011;65693;49.798;10.968;2023-05-07T09:34:34;8.18;;;6.50;;
49972;SDS011;65693;49.798;10.968;2023-05-07T09:37:02;7.70;;;5.90;;
49972;SDS011;65693;49.798;10.968;2023-05-07T09:39:38;7.57;;;5.88;;
49972;SDS011;65693;49.798;10.968;2023-05-07T09:42:06;8.75;;;6.05;;
49972;SDS011;65693;49.798;10.968;2023-05-07T09:44:33;7.10;;;5.50;;
49972;SDS011;65693;49.798;10.968;2023-05-07T09:47:00;7.45;;;5.60;;
49972;SDS011;65693;49.798;10.968;2023-05-07T09:49:28;7.75;;;6.47;;
49972;SDS011;65693;49.798;10.968;2023-05-07T09:51:56;6.82;;;6.07;;
49972;SDS011;65693;49.798;10.968;2023-05-07T09:54:25;6.32;;;5.53;;
49972;SDS011;65693;49.798;10.968;2023-05-07T09:56:54;6.10;;;5.50;;
49972;SDS011;65693;49.798;10.968;2023-05-07T09:59:22;6.75;;;5.90;;
49972;SDS011;65693;49.798;10.968;2023-05-07T10:01:50;7.20;;;5.93;;
49972;SDS011;65693;49.798;10.968;2023-05-07T10:04:22;7.85;;;6.30;;
49972;SDS011;65693;49.798;10.968;2023-05-07T10:06:49;7.30;;;5.35;;
49972;SDS011;65693;49.798;10.968;2023-05-07T10:09:16;7.10;;;5.75;;
49972;SDS011;65693;49.798;10.968;2023-05-07T10:11:43;7.80;;;5.88;;
49972;SDS011;65693;49.798;10.968;2023-05-07T10:14:10;7.25;;;5.50;;
49972;SDS011;65693;49.798;10.968;2023-05-07T10:16:38;8.02;;;5.68;;
49972;SDS011;65693;49.798;10.968;2023-05-07T10:19:04;7.40;;;5.60;;
49972;SDS011;65693;49.798;10.968;2023-05-07T10:21:32;7.57;;;6.00;;
49972;SDS011;65693;49.798;10.968;2023-05-07T10:24:03;8.10;;;6.10;;
49972;SDS011;65693;49.798;10.968;2023-05-07T10:26:33;7.28;;;5.47;;
49972;SDS011;65693;49.798;10.968;2023-05-07T10:29:01;7.50;;;5.60;;
49972;SDS011;65693;49.798;10.968;2023-05-07T10:31:36;9.02;;;6.22;;
49972;SDS011;65693;49.798;10.968;2023-05-07T10:34:16;6.80;;;6.03;;
49972;SDS011;65693;49.798;10.968;2023-05-07T10:36:45;7.30;;;5.47;;
49972;SDS011;65693;49.798;10.968;2023-05-07T10:39:12;6.90;;;5.78;;
49972;SDS011;65693;49.798;10.968;2023-05-07T10:41:39;6.47;;;5.20;;
49972;SDS011;65693;49.798;10.968;2023-05-07T10:44:05;7.07;;;4.90;;
49972;SDS011;65693;49.798;10.968;2023-05-07T10:46:32;10.60;;;5.10;;
49972;SDS011;65693;49.798;10.968;2023-05-07T10:49:08;6.88;;;5.30;;
49972;SDS011;65693;49.798;10.968;2023-05-07T10:51:36;6.88;;;4.60;;
49972;SDS011;65693;49.798;10.968;2023-05-07T10:54:18;5.32;;;4.65;;
49972;SDS011;65693;49.798;10.968;2023-05-07T10:56:48;7.15;;;5.10;;
49972;SDS011;65693;49.798;10.968;2023-05-07T10:59:32;7.03;;;4.63;;
49972;SDS011;65693;49.798;10.968;2023-05-07T11:02:05;5.82;;;4.70;;
49972;SDS011;65693;49.798;10.968;2023-05-07T11:04:35;6.45;;;4.72;;
49972;SDS011;65693;49.798;10.968;2023-05-07T11:09:54;8.15;;;4.53;;
49972;SDS011;65693;49.798;10.968;2023-05-07T11:15:15;6.25;;;3.90;;
49972;SDS011;65693;49.798;10.968;2023-05-07T11:18:00;6.82;;;4.50;;
49972;SDS011;65693;49.798;10.968;2023-05-07T11:26:25;5.95;;;4.00;;
49972;SDS011;65693;49.798;10.968;2023-05-07T11:28:53;6.15;;;4.10;;
49972;SDS011;65693;49.798;10.968;2023-05-07T11:31:23;5.78;;;3.72;;
49972;SDS011;65693;49.798;10.968;2023-05-07T11:33:52;7.25;;;4.68;;
49972;SDS011;65693;49.798;10.968;2023-05-07T11:36:21;5.93;;;3.95;;
49972;SDS011;65693;49.798;10.968;2023-05-07T11:38:49;5.60;;;4.07;;
49972;SDS011;65693;49.798;10.968;2023-05-07T11:41:16;4.97;;;4.03;;
49972;SDS011;65693;49.798;10.968;2023-05-07T11:43:54;5.43;;;4.20;;
49972;SDS011;65693;49.798;10.968;2023-05-07T11:46:25;6.43;;;4.90;;
49972;SDS011;65693;49.798;10.968;2023-05-07T11:48:52;5.82;;;3.90;;
49972;SDS011;65693;49.798;10.968;2023-05-07T11:51:19;5.13;;;3.72;;
49972;SDS011;65693;49.798;10.968;2023-05-07T11:53:47;4.95;;;3.70;;
49972;SDS011;65693;49.798;10.968;2023-05-07T11:56:14;5.82;;;3.85;;
49972;SDS011;65693;49.798;10.968;2023-05-07T11:58:42;7.18;;;4.05;;
49972;SDS011;65693;49.798;10.968;2023-05-07T12:01:10;6.85;;;3.80;;
49972;SDS011;65693;49.798;10.968;2023-05-07T12:03:39;5.20;;;3.90;;
49972;SDS011;65693;49.798;10.968;2023-05-07T12:06:07;4.85;;;3.53;;
49972;SDS011;65693;49.798;10.968;2023-05-07T12:08:37;5.55;;;3.38;;
49972;SDS011;65693;49.798;10.968;2023-05-07T12:11:06;5.68;;;3.72;;
49972;SDS011;65693;49.798;10.968;2023-05-07T12:13:34;5.03;;;3.60;;
49972;SDS011;65693;49.798;10.968;2023-05-07T12:16:01;4.63;;;3.30;;
49972;SDS011;65693;49.798;10.968;2023-05-07T12:18:29;4.00;;;3.30;;
49972;SDS011;65693;49.798;10.968;2023-05-07T12:20:55;4.93;;;3.33;;
49972;SDS011;65693;49.798;10.968;2023-05-07T12:23:23;4.10;;;3.20;;
49972;SDS011;65693;49.798;10.968;2023-05-07T12:25:51;5.40;;;3.78;;
49972;SDS011;65693;49.798;10.968;2023-05-07T12:28:17;5.05;;;3.30;;
49972;SDS011;65693;49.798;10.968;2023-05-07T12:30:45;6.85;;;3.40;;
49972;SDS011;65693;49.798;10.968;2023-05-07T12:33:16;5.18;;;3.33;;
49972;SDS011;65693;49.798;10.968;2023-05-07T12:35:43;4.65;;;3.03;;
49972;SDS011;65693;49.798;10.968;2023-05-07T12:38:11;4.80;;;3.30;;
49972;SDS011;65693;49.798;10.968;2023-05-07T12:40:39;5.95;;;3.90;;
49972;SDS011;65693;49.798;10.968;2023-05-07T12:43:08;4.97;;;3.55;;
49972;SDS011;65693;49.798;10.968;2023-05-07T12:45:41;5.07;;;3.67;;
49972;SDS011;65693;49.798;10.968;2023-05-07T12:48:09;6.03;;;3.42;;
49972;SDS011;65693;49.798;10.968;2023-05-07T12:50:36;6.28;;;3.78;;
49972;SDS011;65693;49.798;10.968;2023-05-07T12:53:03;6.28;;;3.70;;
49972;SDS011;65693;49.798;10.968;2023-05-07T12:55:31;4.53;;;3.55;;
49972;SDS011;65693;49.798;10.968;2023-05-07T12:58:00;5.93;;;4.18;;
49972;SDS011;65693;49.798;10.968;2023-05-07T13:00:35;5.28;;;3.90;;
49972;SDS011;65693;49.798;10.968;2023-05-07T13:03:02;4.90;;;3.85;;
49972;SDS011;65693;49.798;10.968;2023-05-07T13:05:28;5.13;;;3.78;;
49972;SDS011;65693;49.798;10.968;2023-05-07T13:07:55;5.20;;;4.05;;
49972;SDS011;65693;49.798;10.968;2023-05-07T13:10:22;5.00;;;3.83;;
49972;SDS011;65693;49.798;10.968;2023-05-07T13:12:49;6.25;;;3.75;;
49972;SDS011;65693;49.798;10.968;2023-05-07T13:15:15;5.07;;;3.85;;
49972;SDS011;65693;49.798;10.968;2023-05-07T13:17:44;6.38;;;3.63;;
49972;SDS011;65693;49.798;10.968;2023-05-07T13:20:10;5.72;;;3.75;;
49972;SDS011;65693;49.798;10.968;2023-05-07T13:22:38;5.25;;;3.92;;
49972;SDS011;65693;49.798;10.968;2023-05-07T13:25:06;7.88;;;4.57;;
49972;SDS011;65693;49.798;10.968;2023-05-07T13:27:33;7.57;;;4.00;;
49972;SDS011;65693;49.798;10.968;2023-05-07T13:30:01;5.53;;;3.67;;
49972;SDS011;65693;49.798;10.968;2023-05-07T13:32:28;5.50;;;3.45;;
49972;SDS011;65693;49.798;10.968;2023-05-07T13:34:57;5.38;;;3.97;;
49972;SDS011;65693;49.798;10.968;2023-05-07T13:37:24;5.22;;;3.75;;
49972;SDS011;65693;49.798;10.968;2023-05-07T13:39:50;6.35;;;3.85;;
49972;SDS011;65693;49.798;10.968;2023-05-07T13:42:17;4.75;;;3.30;;
49972;SDS011;65693;49.798;10.968;2023-05-07T13:44:43;5.40;;;3.45;;
49972;SDS011;65693;49.798;10.968;2023-05-07T13:47:10;4.68;;;3.22;;
49972;SDS011;65693;49.798;10.968;2023-05-07T13:49:36;4.60;;;3.53;;
49972;SDS011;65693;49.798;10.968;2023-05-07T13:52:04;4.35;;;3.45;;
49972;SDS011;65693;49.798;10.968;2023-05-07T13:54:31;4.75;;;3.40;;
49972;SDS011;65693;49.798;10.968;2023-05-07T13:56:57;5.32;;;4.00;;
49972;SDS011;65693;49.798;10.968;2023-05-07T13:59:23;5.55;;;3.83;;
49972;SDS011;65693;49.798;10.968;2023-05-07T14:01:50;5.63;;;3.92;;
49972;SDS011;65693;49.798;10.968;2023-05-07T14:04:16;5.35;;;4.00;;
49972;SDS011;65693;49.798;10.968;2023-05-07T14:06:43;6.63;;;4.28;;
49972;SDS011;65693;49.798;10.968;2023-05-07T14:09:10;5.05;;;4.22;;
49972;SDS011;65693;49.798;10.968;2023-05-07T14:11:38;4.97;;;3.95;;
49972;SDS011;65693;49.798;10.968;2023-05-07T14:14:04;6.03;;;4.20;;
49972;SDS011;65693;49.798;10.968;2023-05-07T14:16:31;4.65;;;3.53;;
49972;SDS011;65693;49.798;10.968;2023-05-07T14:18:57;5.03;;;3.42;;
49972;SDS011;65693;49.798;10.968;2023-05-07T14:21:24;5.07;;;3.67;;
49972;SDS011;65693;49.798;10.968;2023-05-07T14:23:50;7.75;;;4.07;;
49972;SDS011;65693;49.798;10.968;2023-05-07T14:26:18;5.13;;;3.72;;
49972;SDS011;65693;49.798;10.968;2023-05-07T14:28:45;5.35;;;3.88;;
49972;SDS011;65693;49.798;10.968;2023-05-07T14:31:12;5.03;;;3.63;;
49972;SDS011;65693;49.798;10.968;2023-05-07T14:33:38;6.50;;;4.05;;
49972;SDS011;65693;49.798;10.968;2023-05-07T14:36:05;5.13;;;4.00;;
49972;SDS011;65693;49.798;10.968;2023-05-07T14:38:32;4.70;;;3.53;;
49972;SDS011;65693;49.798;10.968;2023-05-07T14:40:58;4.70;;;3.50;;
49972;SDS011;65693;49.798;10.968;2023-05-07T14:43:27;4.82;;;3.72;;
49972;SDS011;65693;49.798;10.968;2023-05-07T14:45:53;5.03;;;3.92;;